createdAt,value
2023-05-19T00:01:10.048Z,102333.00
2023-05-19T00:03:40.825Z,102328.47
2023-05-19T00:06:11.649Z,102325.72
2023-05-19T00:08:43.844Z,102326.03
2023-05-19T00:11:14.028Z,102330.00
2023-05-19T00:13:45.557Z,102337.59
2023-05-19T00:16:16.657Z,102332.94
2023-05-19T00:18:47.659Z,102337.59
2023-05-19T00:21:18.056Z,102330.97
2023-05-19T00:23:49.975Z,102336.69
2023-05-19T00:26:19.356Z,102338.22
2023-05-19T00:28:48.720Z,102328.94
2023-05-19T00:31:18.313Z,102333.06
2023-05-19T00:33:48.026Z,102329.16
2023-05-19T00:36:17.411Z,102331.94
2023-05-19T00:38:46.751Z,102333.38
2023-05-19T00:41:18.795Z,102328.28
2023-05-19T00:43:48.364Z,102329.25
2023-05-19T00:46:17.760Z,102332.78
2023-05-19T00:48:47.395Z,102320.97
2023-05-19T00:51:17.396Z,102322.94
2023-05-19T00:53:51.129Z,102333.47
2023-05-19T00:56:23.837Z,102327.00
2023-05-19T00:58:54.556Z,102331.78
2023-05-19T01:01:26.986Z,102326.78
2023-05-19T01:03:56.959Z,102318.59
2023-05-19T01:06:27.898Z,102323.50
2023-05-19T01:08:57.519Z,102320.16
2023-05-19T01:11:29.527Z,102323.34
2023-05-19T01:13:59.117Z,102325.88
2023-05-19T01:16:34.077Z,102328.81
2023-05-19T01:19:11.095Z,102327.09
2023-05-19T01:22:13.189Z,102330.16
2023-05-19T01:25:07.731Z,102327.53
2023-05-19T01:28:08.512Z,102325.72
2023-05-19T01:30:43.401Z,102316.41
2023-05-19T01:33:14.706Z,102326.03
2023-05-19T01:35:45.878Z,102330.25
2023-05-19T01:38:18.648Z,102329.66
2023-05-19T01:40:50.928Z,102329.56
2023-05-19T01:43:22.501Z,102330.06
2023-05-19T01:45:55.787Z,102330.06
2023-05-19T01:48:26.048Z,102322.97
2023-05-19T01:50:57.392Z,102324.97
2023-05-19T01:53:27.012Z,102329.94
2023-05-19T01:55:58.858Z,102328.28
2023-05-19T01:58:40.684Z,102330.06
2023-05-19T02:01:22.871Z,102335.19
2023-05-19T02:04:05.914Z,102329.84
2023-05-19T02:06:42.693Z,102328.66
2023-05-19T02:09:18.783Z,102338.13
2023-05-19T02:11:55.008Z,102329.09
2023-05-19T02:14:32.523Z,102330.84
2023-05-19T02:17:07.158Z,102332.84
2023-05-19T02:19:42.213Z,102339.03
2023-05-19T02:22:11.625Z,102336.91
2023-05-19T02:24:41.518Z,102331.56
2023-05-19T02:27:10.900Z,102327.16
2023-05-19T02:29:40.281Z,102332.56
2023-05-19T02:32:14.628Z,102339.03
2023-05-19T02:34:45.696Z,102331.78
2023-05-19T02:37:15.448Z,102324.06
2023-05-19T02:39:45.090Z,102324.06
2023-05-19T02:42:17.807Z,102322.50
2023-05-19T02:44:47.185Z,102315.97
2023-05-19T02:47:19.170Z,102316.69
2023-05-19T02:49:48.775Z,102317.47
2023-05-19T02:52:18.140Z,102316.25
2023-05-19T02:54:47.675Z,102319.81
2023-05-19T02:57:17.077Z,102317.91
2023-05-19T02:59:46.652Z,102307.56
2023-05-19T03:02:16.164Z,102316.03
2023-05-19T03:04:48.152Z,102309.66
2023-05-19T03:07:17.799Z,102311.47
2023-05-19T03:09:47.139Z,102306.78
2023-05-19T03:12:16.484Z,102313.41
2023-05-19T03:14:45.885Z,102311.06
2023-05-19T03:17:15.390Z,102307.28
2023-05-19T03:19:44.807Z,102309.34
2023-05-19T03:22:18.648Z,102304.84
2023-05-19T03:24:51.163Z,102297.56
2023-05-19T03:27:20.552Z,102291.63
2023-05-19T03:29:49.903Z,102294.13
2023-05-19T03:32:19.284Z,102310.41
2023-05-19T03:34:48.714Z,102311.47
2023-05-19T03:37:20.651Z,102311.84
2023-05-19T03:39:50.046Z,102312.28
2023-05-19T03:42:19.777Z,102310.69
2023-05-19T03:44:49.107Z,102309.34
2023-05-19T03:47:18.750Z,102308.47
2023-05-19T03:49:48.113Z,102307.78
2023-05-19T03:52:20.077Z,102317.31
2023-05-19T03:54:49.465Z,102312.34
2023-05-19T03:57:18.962Z,102309.91
2023-05-19T03:59:48.359Z,102308.22
2023-05-19T04:02:17.816Z,102308.00
2023-05-19T04:04:47.286Z,102306.66
2023-05-19T04:07:16.782Z,102310.03
2023-05-19T04:09:48.790Z,102314.28
2023-05-19T04:12:18.191Z,102311.16
2023-05-19T04:14:47.544Z,102303.19
2023-05-19T04:17:17.098Z,102310.72
2023-05-19T04:19:46.552Z,102312.13
2023-05-19T04:22:16.151Z,102313.72
2023-05-19T04:24:49.093Z,102315.03
2023-05-19T04:27:18.532Z,102316.53
2023-05-19T04:29:49.766Z,102325.31
2023-05-19T04:32:20.172Z,102318.53
2023-05-19T04:34:49.513Z,102333.69
2023-05-19T04:37:20.161Z,102324.41
2023-05-19T04:39:52.366Z,102321.84
2023-05-19T04:42:21.950Z,102330.66
2023-05-19T04:44:52.019Z,102334.47
2023-05-19T04:47:21.715Z,102335.19
2023-05-19T04:49:55.649Z,102327.47
2023-05-19T04:52:26.080Z,102332.97
2023-05-19T04:54:58.054Z,102332.00
2023-05-19T04:57:27.566Z,102324.78
2023-05-19T05:00:00.123Z,102325.44
2023-05-19T05:02:30.178Z,102318.91
2023-05-19T05:04:59.609Z,102330.25
2023-05-19T05:07:31.597Z,102325.75
2023-05-19T05:10:04.282Z,102325.66
2023-05-19T05:12:36.094Z,102328.22
2023-05-19T05:15:07.120Z,102324.22
2023-05-19T05:17:37.953Z,102328.44
2023-05-19T05:20:08.798Z,102335.75
2023-05-19T05:22:38.898Z,102341.06
2023-05-19T05:25:13.115Z,102334.56
2023-05-19T05:27:42.526Z,102344.41
2023-05-19T05:30:12.213Z,102333.81
2023-05-19T05:32:41.684Z,102343.28
2023-05-19T05:35:12.205Z,102332.38
2023-05-19T05:37:41.553Z,102336.63
2023-05-19T05:40:15.708Z,102333.31
2023-05-19T05:42:45.690Z,102333.84
2023-05-19T05:45:15.029Z,102327.97
2023-05-19T05:47:45.030Z,102334.38
2023-05-19T05:50:16.212Z,102338.28
2023-05-19T05:52:49.592Z,102336.03
2023-05-19T05:55:23.185Z,102329.88
2023-05-19T05:57:53.164Z,102330.44
2023-05-19T06:00:23.784Z,102340.16
2023-05-19T06:02:54.093Z,102327.59
2023-05-19T06:05:23.737Z,102334.22
2023-05-19T06:07:53.131Z,102326.59
2023-05-19T06:10:25.417Z,102335.44
2023-05-19T06:12:54.778Z,102330.59
2023-05-19T06:15:24.628Z,102334.81
2023-05-19T06:17:54.869Z,102337.84
2023-05-19T06:20:24.343Z,102334.91
2023-05-19T06:22:53.738Z,102323.69
2023-05-19T06:25:26.030Z,102333.81
2023-05-19T06:27:55.381Z,102330.06
2023-05-19T06:30:24.782Z,102337.66
2023-05-19T06:32:54.340Z,102328.06
2023-05-19T06:35:23.753Z,102331.75
2023-05-19T06:37:53.702Z,102326.56
2023-05-19T06:40:25.871Z,102333.97
2023-05-19T06:42:55.201Z,102332.41
2023-05-19T06:45:24.541Z,102331.97
2023-05-19T06:47:54.644Z,102329.34
2023-05-19T06:50:24.122Z,102334.47
2023-05-19T06:52:53.720Z,102328.56
2023-05-19T06:55:26.008Z,102330.00
2023-05-19T06:57:55.364Z,102326.22
2023-05-19T07:00:25.134Z,102331.88
2023-05-19T07:02:57.531Z,102334.34
2023-05-19T07:05:26.952Z,102316.09
2023-05-19T07:07:56.374Z,102331.88
2023-05-19T07:10:28.351Z,102329.75
2023-05-19T07:12:58.235Z,102322.47
2023-05-19T07:15:27.587Z,102324.28
2023-05-19T07:17:57.089Z,102325.72
2023-05-19T07:20:26.482Z,102325.31
2023-05-19T07:22:56.055Z,102324.25
2023-05-19T07:25:31.213Z,102325.69
2023-05-19T07:28:00.758Z,102328.41
2023-05-19T07:30:30.917Z,102322.53
2023-05-19T07:33:00.672Z,102318.88
2023-05-19T07:35:30.103Z,102322.34
2023-05-19T07:37:59.463Z,102323.94
2023-05-19T07:40:31.890Z,102325.00
2023-05-19T07:43:01.397Z,102319.84
2023-05-19T07:45:30.817Z,102311.72
2023-05-19T07:48:00.234Z,102314.09
2023-05-19T07:50:29.902Z,102317.03
2023-05-19T07:52:59.311Z,102317.25
2023-05-19T07:55:31.417Z,102320.78
2023-05-19T07:58:00.784Z,102317.00
2023-05-19T08:00:30.230Z,102321.78
2023-05-19T08:03:00.032Z,102322.84
2023-05-19T08:05:29.982Z,102313.13
2023-05-19T08:07:59.622Z,102308.53
2023-05-19T08:10:31.750Z,102307.13
2023-05-19T08:13:03.737Z,102308.25
2023-05-19T08:15:33.131Z,102304.97
2023-05-19T08:18:03.524Z,102309.50
2023-05-19T08:20:34.270Z,102305.50
2023-05-19T08:23:04.776Z,102309.22
2023-05-19T08:25:36.731Z,102299.09
2023-05-19T08:28:06.685Z,102300.78
2023-05-19T08:30:36.159Z,102295.13
2023-05-19T08:33:05.649Z,102305.94
2023-05-19T08:35:35.072Z,102300.13
2023-05-19T08:38:04.427Z,102298.50
2023-05-19T08:40:38.947Z,102302.00
2023-05-19T08:43:08.337Z,102298.44
2023-05-19T08:45:38.816Z,102298.47
2023-05-19T08:48:09.491Z,102295.81
2023-05-19T08:50:42.754Z,102296.19
2023-05-19T08:53:31.807Z,102285.41
2023-05-19T08:56:13.418Z,102275.84
2023-05-19T08:58:44.280Z,102274.22
2023-05-19T09:01:17.107Z,102267.38
2023-05-19T09:03:50.028Z,102271.56
2023-05-19T09:06:20.249Z,102269.50
2023-05-19T09:08:49.868Z,102269.56
2023-05-19T09:11:22.695Z,102266.19
2023-05-19T09:13:52.441Z,102270.53
2023-05-19T09:16:22.106Z,102268.44
2023-05-19T09:18:58.808Z,102265.88
2023-05-19T09:21:33.109Z,102266.03
2023-05-19T09:24:08.422Z,102265.28
2023-05-19T09:26:45.073Z,102266.06
2023-05-19T09:29:15.515Z,102258.31
2023-05-19T09:31:52.009Z,102255.84
2023-05-19T09:34:23.278Z,102270.09
2023-05-19T09:36:53.583Z,102251.13
2023-05-19T09:39:25.283Z,102250.09
2023-05-19T09:42:00.306Z,102247.75
2023-05-19T09:44:31.451Z,102241.16
2023-05-19T09:47:02.297Z,102237.72
2023-05-19T09:49:33.313Z,102236.72
2023-05-19T09:52:06.216Z,102243.81
2023-05-19T09:54:37.468Z,102235.16
2023-05-19T09:57:09.607Z,102238.63
2023-05-19T09:59:39.410Z,102230.34
2023-05-19T10:02:12.003Z,102233.50
2023-05-19T10:04:41.966Z,102227.38
2023-05-19T10:07:15.148Z,102222.44
2023-05-19T10:09:45.462Z,102227.41
2023-05-19T10:12:17.749Z,102217.41
2023-05-19T10:14:47.287Z,102221.34
2023-05-19T10:17:17.577Z,102218.63
2023-05-19T10:19:47.971Z,102214.56
2023-05-19T10:22:17.385Z,102212.84
2023-05-19T10:24:46.764Z,102195.81
2023-05-19T10:27:20.556Z,102202.81
2023-05-19T10:29:54.458Z,102198.09
2023-05-19T10:32:27.551Z,102204.09
2023-05-19T10:35:11.954Z,102195.63
2023-05-19T10:37:48.425Z,102205.72
2023-05-19T10:40:24.361Z,102200.16
2023-05-19T10:43:14.487Z,102196.41
2023-05-19T10:45:50.372Z,102187.69
2023-05-19T10:48:23.157Z,102183.84
2023-05-19T10:50:57.045Z,102191.88
2023-05-19T10:53:34.979Z,102194.00
2023-05-19T10:56:07.136Z,102188.44
2023-05-19T10:58:53.146Z,102184.47
2023-05-19T11:01:24.998Z,102188.78
2023-05-19T11:03:57.337Z,102186.03
2023-05-19T11:06:32.114Z,102175.09
2023-05-19T11:09:05.122Z,102175.28
2023-05-19T11:11:48.158Z,102185.75
2023-05-19T11:14:21.627Z,102189.84
2023-05-19T11:16:52.099Z,102182.44
2023-05-19T11:19:22.848Z,102179.72
2023-05-19T11:21:55.146Z,102184.78
2023-05-19T11:24:38.555Z,102185.56
2023-05-19T11:27:26.085Z,102179.66
2023-05-19T11:30:00.252Z,102174.56
2023-05-19T11:32:33.696Z,102181.88
2023-05-19T11:35:03.772Z,102187.34
2023-05-19T11:37:35.192Z,102187.03
2023-05-19T11:40:05.527Z,102189.31
2023-05-19T11:42:35.088Z,102186.84
2023-05-19T11:45:08.140Z,102178.31
2023-05-19T11:47:50.818Z,102156.91
2023-05-19T11:50:27.559Z,102163.03
2023-05-19T11:52:57.867Z,102163.59
2023-05-19T11:55:27.596Z,102152.88
2023-05-19T11:58:04.998Z,102155.03
2023-05-19T12:00:42.136Z,102155.88
2023-05-19T12:03:12.132Z,102149.53
2023-05-19T12:05:47.627Z,102153.41
2023-05-19T12:08:19.207Z,102147.72
2023-05-19T12:10:51.271Z,102147.84
2023-05-19T12:13:22.727Z,102149.22
2023-05-19T12:15:56.128Z,102144.22
2023-05-19T12:18:25.682Z,102146.47
2023-05-19T12:20:55.302Z,102143.72
2023-05-19T12:23:25.565Z,102146.47
2023-05-19T12:25:55.698Z,102147.81
2023-05-19T12:28:25.084Z,102144.53
2023-05-19T12:30:58.682Z,102140.63
2023-05-19T12:33:28.447Z,102143.22
2023-05-19T12:35:57.830Z,102143.72
2023-05-19T12:38:27.230Z,102133.31
2023-05-19T12:40:56.696Z,102128.94
2023-05-19T12:43:26.750Z,102127.81
2023-05-19T12:45:58.840Z,102130.97
2023-05-19T12:48:28.661Z,102122.81
2023-05-19T12:50:58.338Z,102130.19
2023-05-19T12:53:29.711Z,102120.03
2023-05-19T12:55:59.065Z,102121.75
2023-05-19T12:58:28.457Z,102130.13
2023-05-19T13:01:05.660Z,102134.50
2023-05-19T13:03:36.026Z,102128.41
2023-05-19T13:06:05.936Z,102124.59
2023-05-19T13:08:35.294Z,102125.69
2023-05-19T13:11:04.685Z,102119.19
2023-05-19T13:13:34.220Z,102125.13
2023-05-19T13:16:06.426Z,102124.09
2023-05-19T13:18:37.803Z,102125.72
2023-05-19T13:21:08.266Z,102125.59
2023-05-19T13:23:37.797Z,102120.94
2023-05-19T13:26:08.060Z,102126.16
2023-05-19T13:28:37.645Z,102120.16
2023-05-19T13:31:09.650Z,102120.91
2023-05-19T13:33:39.050Z,102122.59
2023-05-19T13:36:09.316Z,102124.25
2023-05-19T13:38:38.695Z,102123.03
2023-05-19T13:41:09.466Z,102118.78
2023-05-19T13:43:40.157Z,102110.50
2023-05-19T13:46:12.530Z,102117.03
2023-05-19T13:48:42.064Z,102116.53
2023-05-19T13:51:12.302Z,102123.38
2023-05-19T13:53:42.474Z,102119.81
2023-05-19T13:56:12.454Z,102107.03
2023-05-19T13:58:41.814Z,102111.69
2023-05-19T14:01:14.164Z,102105.97
2023-05-19T14:03:43.691Z,102103.63
2023-05-19T14:06:13.177Z,102094.28
2023-05-19T14:08:46.166Z,102094.06
2023-05-19T14:11:20.372Z,102098.97
2023-05-19T14:13:52.869Z,102102.13
2023-05-19T14:16:26.525Z,102100.09
2023-05-19T14:18:56.121Z,102098.50
2023-05-19T14:21:25.619Z,102099.59
2023-05-19T14:23:55.015Z,102094.94
2023-05-19T14:26:24.467Z,102093.03
2023-05-19T14:28:53.951Z,102081.34
2023-05-19T14:31:26.318Z,102085.44
2023-05-19T14:33:56.142Z,102083.28
2023-05-19T14:36:25.546Z,102081.34
2023-05-19T14:38:54.993Z,102079.72
2023-05-19T14:41:24.381Z,102091.75
2023-05-19T14:43:53.736Z,102090.41
2023-05-19T14:46:25.744Z,102095.00
2023-05-19T14:48:55.188Z,102087.06
2023-05-19T14:51:24.701Z,102082.72
2023-05-19T14:53:54.143Z,102091.66
2023-05-19T14:56:23.539Z,102080.97
2023-05-19T14:58:52.948Z,102098.75
2023-05-19T15:01:22.417Z,102096.31
2023-05-19T15:03:54.585Z,102090.00
2023-05-19T15:06:23.977Z,102093.97
2023-05-19T15:08:53.330Z,102087.53
2023-05-19T15:11:22.793Z,102089.16
2023-05-19T15:13:52.159Z,102087.00
2023-05-19T15:16:21.556Z,102079.59
2023-05-19T15:18:51.588Z,102095.72
2023-05-19T15:21:23.640Z,102088.50
2023-05-19T15:23:53.011Z,102088.16
2023-05-19T15:26:22.538Z,102090.56
2023-05-19T15:28:51.888Z,102085.22
2023-05-19T15:31:22.329Z,102086.28
2023-05-19T15:33:51.753Z,102086.81
2023-05-19T15:36:24.186Z,102084.69
2023-05-19T15:38:53.621Z,102089.59
2023-05-19T15:41:22.988Z,102075.91
2023-05-19T15:43:53.532Z,102074.84
2023-05-19T15:46:23.145Z,102074.06
2023-05-19T15:48:52.560Z,102075.13
2023-05-19T15:51:25.496Z,102075.97
2023-05-19T15:53:55.153Z,102075.50
2023-05-19T15:56:24.569Z,102083.75
2023-05-19T15:58:53.987Z,102070.41
2023-05-19T16:01:24.018Z,102075.84
2023-05-19T16:03:53.509Z,102075.31
2023-05-19T16:06:27.770Z,102071.47
2023-05-19T16:08:57.133Z,102072.03
2023-05-19T16:11:26.912Z,102071.75
2023-05-19T16:13:56.342Z,102071.22
2023-05-19T16:16:25.845Z,102077.09
2023-05-19T16:18:55.332Z,102054.75
2023-05-19T16:21:27.310Z,102061.28
2023-05-19T16:23:56.701Z,102063.50
2023-05-19T16:26:26.540Z,102055.59
2023-05-19T16:28:55.946Z,102050.47
2023-05-19T16:31:25.486Z,102057.31
2023-05-19T16:33:54.868Z,102050.50
2023-05-19T16:36:27.102Z,102056.97
2023-05-19T16:38:56.485Z,102056.34
2023-05-19T16:41:26.704Z,102051.50
2023-05-19T16:43:56.108Z,102045.00
2023-05-19T16:46:25.593Z,102053.75
2023-05-19T16:48:54.984Z,102049.63
2023-05-19T16:51:27.573Z,102063.97
2023-05-19T16:53:56.948Z,102050.28
2023-05-19T16:56:26.522Z,102055.00
2023-05-19T16:58:56.102Z,102045.09
2023-05-19T17:01:25.667Z,102047.25
2023-05-19T17:03:55.822Z,102048.09
2023-05-19T17:06:27.832Z,102049.25
2023-05-19T17:08:57.213Z,102048.16
2023-05-19T17:11:26.872Z,102048.16
2023-05-19T17:13:56.560Z,102044.84
2023-05-19T17:16:26.305Z,102041.66
2023-05-19T17:18:56.112Z,102047.09
2023-05-19T17:21:28.095Z,102044.09
2023-05-19T17:23:57.470Z,102036.53
2023-05-19T17:26:26.812Z,102037.59
2023-05-19T17:28:56.252Z,102047.16
2023-05-19T17:31:26.113Z,102046.06
2023-05-19T17:33:55.498Z,102042.81
2023-05-19T17:36:24.857Z,102048.28
2023-05-19T17:38:57.356Z,102051.94
2023-05-19T17:41:26.738Z,102050.28
2023-05-19T17:43:56.109Z,102055.69
2023-05-19T17:46:25.816Z,102050.59
2023-05-19T17:48:55.245Z,102058.78
2023-05-19T17:51:25.259Z,102067.00
2023-05-19T17:53:58.111Z,102058.19
2023-05-19T17:56:28.188Z,102060.63
2023-05-19T17:58:58.253Z,102057.84
2023-05-19T18:01:28.222Z,102059.66
2023-05-19T18:03:58.339Z,102056.09
2023-05-19T18:06:29.689Z,102063.06
2023-05-19T18:09:03.752Z,102057.56
2023-05-19T18:11:33.100Z,102061.63
2023-05-19T18:14:06.228Z,102059.16
2023-05-19T18:16:36.108Z,102059.53
2023-05-19T18:19:06.224Z,102061.00
2023-05-19T18:21:35.580Z,102061.53
2023-05-19T18:24:08.459Z,102058.41
2023-05-19T18:26:41.853Z,102059.34
2023-05-19T18:29:11.827Z,102061.50
2023-05-19T18:31:41.269Z,102061.16
2023-05-19T18:34:10.681Z,102071.81
2023-05-19T18:36:40.072Z,102072.25
2023-05-19T18:39:12.106Z,102069.50
2023-05-19T18:41:42.825Z,102076.66
2023-05-19T18:44:12.343Z,102072.91
2023-05-19T18:46:42.009Z,102081.50
2023-05-19T18:49:11.978Z,102081.25
2023-05-19T18:51:42.180Z,102080.72
2023-05-19T18:54:14.957Z,102083.47
2023-05-19T18:56:44.414Z,102089.81
2023-05-19T18:59:14.014Z,102082.44
2023-05-19T19:01:43.383Z,102083.97
2023-05-19T19:04:14.853Z,102086.84
2023-05-19T19:06:44.310Z,102098.13
2023-05-19T19:09:16.554Z,102095.53
2023-05-19T19:11:46.117Z,102101.66
2023-05-19T19:14:15.483Z,102098.63
2023-05-19T19:16:46.792Z,102099.66
2023-05-19T19:19:16.238Z,102102.31
2023-05-19T19:21:45.712Z,102100.06
2023-05-19T19:24:19.464Z,102097.34
2023-05-19T19:26:48.837Z,102109.78
2023-05-19T19:29:18.410Z,102104.16
2023-05-19T19:31:48.044Z,102100.63
2023-05-19T19:34:19.920Z,102106.00
2023-05-19T19:36:49.798Z,102108.03
2023-05-19T19:39:21.829Z,102110.56
2023-05-19T19:41:51.204Z,102111.69
2023-05-19T19:44:22.865Z,102115.91
2023-05-19T19:46:52.608Z,102117.00
2023-05-19T19:49:22.099Z,102113.13
2023-05-19T19:51:51.485Z,102121.25
2023-05-19T19:54:23.446Z,102125.59
2023-05-19T19:56:53.047Z,102133.59
2023-05-19T19:59:22.513Z,102132.31
2023-05-19T20:01:51.919Z,102135.34
2023-05-19T20:04:21.494Z,102131.78
2023-05-19T20:06:51.303Z,102138.84
2023-05-19T20:09:25.222Z,102133.34
2023-05-19T20:11:54.614Z,102138.63
2023-05-19T20:14:24.150Z,102150.06
2023-05-19T20:16:53.513Z,102154.81
2023-05-19T20:19:25.179Z,102159.56
2023-05-19T20:21:54.585Z,102150.69
2023-05-19T20:24:26.655Z,102152.03
2023-05-19T20:26:56.585Z,102158.50
2023-05-19T20:29:26.033Z,102159.44
2023-05-19T20:31:57.127Z,102161.66
2023-05-19T20:34:26.833Z,102167.59
2023-05-19T20:36:56.434Z,102171.06
2023-05-19T20:39:28.388Z,102164.13
2023-05-19T20:41:57.765Z,102170.81
2023-05-19T20:44:27.161Z,102170.56
2023-05-19T20:46:57.949Z,102176.84
2023-05-19T20:49:27.316Z,102173.84
2023-05-19T20:51:56.755Z,102181.69
2023-05-19T20:54:28.701Z,102179.81
2023-05-19T20:56:58.466Z,102174.97
2023-05-19T20:59:27.904Z,102171.81
2023-05-19T21:01:57.290Z,102158.84
2023-05-19T21:04:26.752Z,102170.88
2023-05-19T21:06:56.249Z,102173.13
2023-05-19T21:09:28.333Z,102165.56
2023-05-19T21:11:57.950Z,102175.91
2023-05-19T21:14:27.688Z,102170.00
2023-05-19T21:16:59.123Z,102174.31
2023-05-19T21:19:28.881Z,102180.38
2023-05-19T21:21:58.409Z,102177.34
2023-05-19T21:24:31.170Z,102174.75
2023-05-19T21:27:00.571Z,102168.84
2023-05-19T21:29:29.964Z,102172.59
2023-05-19T21:31:59.935Z,102179.47
2023-05-19T21:34:29.340Z,102178.31
2023-05-19T21:36:58.731Z,102181.97
2023-05-19T21:39:30.660Z,102180.50
2023-05-19T21:42:00.007Z,102181.50
2023-05-19T21:44:29.425Z,102190.03
2023-05-19T21:46:58.922Z,102186.66
2023-05-19T21:49:28.584Z,102190.19
2023-05-19T21:51:58.125Z,102187.22
2023-05-19T21:54:30.097Z,102191.66
2023-05-19T21:56:59.486Z,102190.00
2023-05-19T21:59:28.982Z,102186.94
2023-05-19T22:01:59.131Z,102185.91
2023-05-19T22:04:31.520Z,102189.34
2023-05-19T22:07:01.266Z,102193.63
2023-05-19T22:09:33.207Z,102193.78
2023-05-19T22:12:03.307Z,102191.31
2023-05-19T22:14:32.650Z,102188.84
2023-05-19T22:17:05.405Z,102195.16
2023-05-19T22:19:34.745Z,102203.50
2023-05-19T22:22:13.221Z,102190.81
2023-05-19T22:24:45.694Z,102194.69
2023-05-19T22:27:15.054Z,102191.34
2023-05-19T22:29:44.446Z,102193.97
2023-05-19T22:32:18.152Z,102199.72
2023-05-19T22:34:47.859Z,102190.41
2023-05-19T22:37:17.699Z,102201.38
2023-05-19T22:39:49.787Z,102200.47
2023-05-19T22:42:19.158Z,102200.28
2023-05-19T22:44:48.888Z,102201.59
2023-05-19T22:47:18.303Z,102193.88
2023-05-19T22:49:47.702Z,102200.03
2023-05-19T22:52:17.161Z,102198.25
2023-05-19T22:54:49.101Z,102194.75
2023-05-19T22:57:19.520Z,102203.78
2023-05-19T22:59:48.897Z,102187.22
2023-05-19T23:02:18.425Z,102189.59
2023-05-19T23:04:47.768Z,102193.44
2023-05-19T23:07:17.215Z,102194.25
2023-05-19T23:09:49.128Z,102186.56
2023-05-19T23:12:18.504Z,102193.72
2023-05-19T23:14:47.953Z,102204.03
2023-05-19T23:17:17.309Z,102208.00
2023-05-19T23:19:46.685Z,102211.69
2023-05-19T23:22:16.043Z,102208.00
2023-05-19T23:24:45.764Z,102202.25
2023-05-19T23:27:17.769Z,102209.00
2023-05-19T23:29:51.586Z,102211.50
2023-05-19T23:32:21.081Z,102210.28
2023-05-19T23:34:51.153Z,102212.94
2023-05-19T23:37:20.562Z,102208.19
2023-05-19T23:39:49.936Z,102207.44
2023-05-19T23:42:21.885Z,102218.09
2023-05-19T23:44:51.318Z,102213.81
2023-05-19T23:47:20.694Z,102213.59
2023-05-19T23:49:50.056Z,102215.28
2023-05-19T23:52:19.440Z,102207.53
2023-05-19T23:54:49.011Z,102215.50
2023-05-19T23:57:18.391Z,102198.63
2023-05-19T23:59:50.340Z,102205.84
